createdAt,value
2018-06-15T00:01:14.423Z,64.52
2018-06-15T00:03:43.700Z,66.18
2018-06-15T00:06:13.076Z,64.08
2018-06-15T00:08:42.407Z,66.43
2018-06-15T00:11:11.688Z,66.26
2018-06-15T00:13:40.945Z,66.10
2018-06-15T00:16:10.285Z,65.91
2018-06-15T00:18:39.551Z,64.11
2018-06-15T00:21:08.916Z,65.84
2018-06-15T00:23:38.191Z,64.37
2018-06-15T00:26:07.940Z,65.58
2018-06-15T00:28:37.336Z,65.61
2018-06-15T00:31:06.736Z,64.98
2018-06-15T00:33:36.107Z,65.89
2018-06-15T00:36:05.433Z,65.77
2018-06-15T00:38:34.708Z,64.44
2018-06-15T00:41:03.972Z,64.89
2018-06-15T00:43:33.255Z,66.65
2018-06-15T00:46:02.639Z,65.50
2018-06-15T00:48:31.911Z,65.36
2018-06-15T00:51:01.320Z,65.06
2018-06-15T00:53:30.596Z,66.37
2018-06-15T00:55:59.944Z,65.74
2018-06-15T00:58:29.230Z,65.59
2018-06-15T01:00:58.496Z,64.81
2018-06-15T01:03:27.768Z,64.92
2018-06-15T01:05:57.257Z,64.08
2018-06-15T01:08:26.611Z,64.37
2018-06-15T01:10:55.913Z,65.23
2018-06-15T01:13:25.195Z,63.94
2018-06-15T01:15:54.472Z,65.85
2018-06-15T01:18:23.744Z,67.79
2018-06-15T01:20:53.067Z,66.36
2018-06-15T01:23:22.345Z,66.82
2018-06-15T01:25:51.783Z,64.75
2018-06-15T01:28:21.096Z,66.45
2018-06-15T01:30:50.391Z,65.29
2018-06-15T01:33:19.706Z,64.61
2018-06-15T01:35:49.014Z,64.57
2018-06-15T01:38:18.372Z,64.84
2018-06-15T01:40:47.840Z,65.83
2018-06-15T01:43:17.213Z,63.50
2018-06-15T01:45:46.487Z,64.24
2018-06-15T01:48:15.780Z,63.77
2018-06-15T01:50:45.064Z,64.69
2018-06-15T01:53:14.434Z,64.75
2018-06-15T01:55:43.773Z,65.17
2018-06-15T01:58:13.052Z,66.38
2018-06-15T02:00:43.206Z,67.08
2018-06-15T02:03:12.487Z,64.97
2018-06-15T02:05:41.772Z,65.95
2018-06-15T02:08:11.089Z,68.93
2018-06-15T02:10:40.504Z,68.63
2018-06-15T02:13:09.800Z,66.09
2018-06-15T02:15:39.083Z,68.25
2018-06-15T02:18:08.409Z,66.33
2018-06-15T02:20:37.767Z,66.82
2018-06-15T02:23:07.056Z,68.84
2018-06-15T02:25:36.344Z,68.09
2018-06-15T02:28:05.622Z,69.33
2018-06-15T02:30:34.968Z,66.68
2018-06-15T02:33:04.256Z,66.94
2018-06-15T02:35:33.636Z,66.87
2018-06-15T02:38:03.107Z,66.98
2018-06-15T02:40:32.420Z,68.04
2018-06-15T02:43:01.835Z,67.00
2018-06-15T02:45:31.216Z,68.29
2018-06-15T02:48:00.397Z,66.06
2018-06-15T02:50:29.705Z,66.16
2018-06-15T02:52:58.981Z,66.44
2018-06-15T02:55:28.312Z,66.34
2018-06-15T02:57:58.603Z,64.89
2018-06-15T03:00:37.230Z,66.13
2018-06-15T03:03:06.666Z,66.24
2018-06-15T03:05:36.113Z,65.64
2018-06-15T03:08:05.428Z,67.24
2018-06-15T03:10:34.701Z,64.96
2018-06-15T03:13:03.993Z,65.42
2018-06-15T03:15:33.329Z,66.25
2018-06-15T03:18:02.661Z,65.38
2018-06-15T03:20:31.932Z,67.96
2018-06-15T03:23:01.209Z,66.02
2018-06-15T03:25:30.484Z,66.50
2018-06-15T03:27:59.790Z,66.61
2018-06-15T03:30:29.066Z,66.26
2018-06-15T03:32:58.486Z,67.27
2018-06-15T03:35:27.792Z,66.00
2018-06-15T03:37:57.080Z,66.26
2018-06-15T03:40:26.368Z,68.16
2018-06-15T03:42:55.699Z,68.14
2018-06-15T03:45:25.024Z,68.16
2018-06-15T03:47:54.467Z,67.43
2018-06-15T03:50:23.824Z,68.26
2018-06-15T03:52:53.133Z,66.05
2018-06-15T03:55:22.412Z,66.80
2018-06-15T03:57:51.747Z,66.51
2018-06-15T04:00:21.030Z,67.05
2018-06-15T04:02:50.303Z,65.71
2018-06-15T04:05:19.633Z,65.89
2018-06-15T04:07:48.970Z,63.83
2018-06-15T04:10:18.288Z,66.51
2018-06-15T04:12:47.659Z,66.36
2018-06-15T04:15:16.984Z,66.21
2018-06-15T04:17:50.563Z,66.38
2018-06-15T04:20:19.897Z,64.53
2018-06-15T04:22:49.204Z,67.19
2018-06-15T04:25:18.538Z,65.71
2018-06-15T04:27:47.892Z,65.58
2018-06-15T04:30:17.304Z,65.33
2018-06-15T04:32:46.640Z,67.22
2018-06-15T04:35:17.429Z,65.69
2018-06-15T04:37:47.517Z,65.93
2018-06-15T04:40:17.041Z,65.59
2018-06-15T04:42:47.412Z,68.04
2018-06-15T04:45:16.728Z,66.82
2018-06-15T04:47:46.032Z,68.14
2018-06-15T04:50:15.372Z,66.63
2018-06-15T04:52:44.752Z,65.56
2018-06-15T04:55:14.072Z,67.92
2018-06-15T04:57:43.394Z,66.60
2018-06-15T05:00:12.733Z,66.27
2018-06-15T05:02:42.201Z,65.12
2018-06-15T05:05:11.632Z,65.43
2018-06-15T05:07:40.981Z,64.65
2018-06-15T05:10:10.335Z,65.16
2018-06-15T05:12:39.648Z,65.73
2018-06-15T05:15:08.958Z,64.58
2018-06-15T05:17:38.329Z,64.68
2018-06-15T05:20:07.673Z,65.92
2018-06-15T05:22:37.077Z,65.16
2018-06-15T05:25:06.408Z,64.16
2018-06-15T05:27:35.755Z,62.91
2018-06-15T05:30:05.617Z,63.01
2018-06-15T05:32:34.941Z,64.85
2018-06-15T05:35:04.335Z,64.38
2018-06-15T05:37:33.767Z,64.47
2018-06-15T05:40:03.390Z,63.62
2018-06-15T05:42:32.900Z,64.43
2018-06-15T05:45:05.252Z,64.25
2018-06-15T05:47:34.723Z,62.41
2018-06-15T05:50:04.111Z,61.75
2018-06-15T05:52:33.469Z,63.44
2018-06-15T05:55:02.803Z,63.78
2018-06-15T05:57:32.125Z,63.92
2018-06-15T06:00:01.530Z,63.47
2018-06-15T06:02:30.825Z,64.83
2018-06-15T06:05:00.113Z,62.87
2018-06-15T06:07:29.392Z,62.82
2018-06-15T06:09:58.929Z,63.76
2018-06-15T06:12:28.225Z,62.01
2018-06-15T06:14:57.506Z,61.09
2018-06-15T06:17:26.806Z,62.69
2018-06-15T06:19:56.198Z,63.77
2018-06-15T06:22:25.555Z,64.00
2018-06-15T06:24:54.838Z,63.13
2018-06-15T06:27:24.152Z,62.17
2018-06-15T06:29:53.469Z,62.70
2018-06-15T06:32:22.845Z,62.20
2018-06-15T06:34:52.230Z,62.91
2018-06-15T06:37:21.581Z,63.19
2018-06-15T06:39:50.891Z,61.92
2018-06-15T06:42:20.195Z,62.47
2018-06-15T06:44:49.776Z,61.22
2018-06-15T06:47:19.200Z,61.21
2018-06-15T06:49:48.608Z,60.99
2018-06-15T06:52:18.091Z,59.67
2018-06-15T06:54:47.598Z,59.58
2018-06-15T06:57:16.915Z,58.26
2018-06-15T06:59:46.300Z,58.35
2018-06-15T07:02:15.618Z,59.01
2018-06-15T07:04:45.054Z,60.04
2018-06-15T07:07:15.418Z,59.04
2018-06-15T07:09:44.733Z,59.04
2018-06-15T07:12:14.104Z,56.33
2018-06-15T07:14:43.432Z,57.25
2018-06-15T07:17:12.785Z,57.45
2018-06-15T07:19:42.117Z,57.07
2018-06-15T07:22:11.432Z,55.96
2018-06-15T07:24:40.822Z,56.72
2018-06-15T07:27:10.147Z,56.96
2018-06-15T07:29:39.513Z,56.50
2018-06-15T07:32:08.913Z,54.36
2018-06-15T07:34:38.245Z,54.61
2018-06-15T07:37:07.685Z,53.15
2018-06-15T07:39:37.025Z,51.87
2018-06-15T07:42:06.429Z,50.69
2018-06-15T07:44:35.800Z,49.36
2018-06-15T07:47:05.125Z,49.81
2018-06-15T07:49:34.520Z,48.10
2018-06-15T07:52:03.877Z,49.55
2018-06-15T07:54:33.228Z,50.51
2018-06-15T07:57:02.787Z,52.30
2018-06-15T07:59:32.193Z,51.45
2018-06-15T08:02:01.557Z,51.37
2018-06-15T08:04:30.923Z,50.90
2018-06-15T08:07:00.252Z,51.33
2018-06-15T08:09:29.572Z,50.56
2018-06-15T08:11:58.904Z,50.50
2018-06-15T08:14:28.286Z,50.69
2018-06-15T08:16:57.598Z,49.54
2018-06-15T08:19:26.936Z,50.06
2018-06-15T08:21:56.288Z,52.01
2018-06-15T08:24:25.761Z,51.66
2018-06-15T08:26:55.173Z,53.91
2018-06-15T08:29:24.510Z,55.98
2018-06-15T08:31:53.841Z,55.49
2018-06-15T08:34:23.214Z,56.15
2018-06-15T08:36:52.544Z,56.85
2018-06-15T08:39:21.902Z,59.45
2018-06-15T08:41:51.223Z,59.26
2018-06-15T08:44:20.550Z,60.83
2018-06-15T08:46:49.881Z,60.86
2018-06-15T08:49:19.244Z,59.69
2018-06-15T08:51:48.591Z,60.75
2018-06-15T08:54:17.884Z,60.37
2018-06-15T08:56:47.181Z,60.76
2018-06-15T08:59:16.472Z,59.14
2018-06-15T09:01:45.774Z,56.61
2018-06-15T09:04:15.115Z,57.09
2018-06-15T09:06:44.398Z,54.38
2018-06-15T09:09:13.736Z,55.23
2018-06-15T09:11:43.053Z,52.17
2018-06-15T09:14:12.383Z,48.46
2018-06-15T09:16:41.770Z,43.43
2018-06-15T09:19:11.100Z,37.20
2018-06-15T09:21:40.464Z,37.51
2018-06-15T09:24:09.840Z,38.18
2018-06-15T09:26:39.279Z,38.87
2018-06-15T09:29:08.844Z,41.06
2018-06-15T09:31:38.157Z,41.56
2018-06-15T09:34:07.728Z,42.94
2018-06-15T09:36:37.076Z,41.62
2018-06-15T09:39:07.955Z,38.00
2018-06-15T09:41:37.270Z,38.38
2018-06-15T09:44:06.668Z,39.87
2018-06-15T09:46:36.114Z,42.31
2018-06-15T09:49:05.512Z,42.30
2018-06-15T09:51:35.061Z,44.60
2018-06-15T09:54:04.394Z,44.71
2018-06-15T09:56:33.696Z,45.89
2018-06-15T09:59:03.024Z,46.82
2018-06-15T10:01:32.341Z,47.89
2018-06-15T10:04:01.656Z,47.74
2018-06-15T10:06:31.088Z,48.98
2018-06-15T10:09:01.457Z,50.71
2018-06-15T10:11:30.784Z,51.08
2018-06-15T10:14:00.193Z,49.25
2018-06-15T10:16:29.523Z,49.07
2018-06-15T10:18:58.889Z,48.59
2018-06-15T10:21:28.292Z,47.17
2018-06-15T10:23:57.617Z,47.31
2018-06-15T10:26:26.948Z,47.58
2018-06-15T10:28:56.376Z,43.92
2018-06-15T10:31:25.672Z,38.96
2018-06-15T10:34:00.849Z,36.43
2018-06-15T10:36:30.237Z,36.41
2018-06-15T10:38:59.589Z,37.75
2018-06-15T10:41:28.920Z,39.44
2018-06-15T10:43:58.285Z,42.72
2018-06-15T10:46:27.638Z,40.80
2018-06-15T10:48:56.961Z,41.08
2018-06-15T10:51:26.274Z,41.42
2018-06-15T10:53:55.629Z,37.30
2018-06-15T10:56:24.945Z,37.23
2018-06-15T10:58:54.306Z,36.71
2018-06-15T11:01:23.647Z,35.71
2018-06-15T11:03:53.021Z,35.92
2018-06-15T11:06:22.358Z,37.90
2018-06-15T11:08:51.853Z,37.84
2018-06-15T11:11:21.189Z,36.76
2018-06-15T11:13:50.528Z,39.29
2018-06-15T11:16:19.916Z,39.64
2018-06-15T11:18:49.335Z,37.71
2018-06-15T11:21:18.739Z,37.21
2018-06-15T11:23:48.138Z,36.74
2018-06-15T11:26:17.872Z,36.61
2018-06-15T11:28:47.438Z,37.98
2018-06-15T11:31:16.779Z,37.08
2018-06-15T11:33:46.145Z,38.09
2018-06-15T11:36:15.498Z,39.12
2018-06-15T11:38:45.010Z,40.53
2018-06-15T11:41:14.364Z,39.23
2018-06-15T11:43:43.639Z,39.68
2018-06-15T11:46:13.772Z,41.65
2018-06-15T11:48:43.058Z,41.28
2018-06-15T11:51:12.335Z,40.63
2018-06-15T11:53:41.661Z,39.66
2018-06-15T11:56:10.995Z,38.06
2018-06-15T11:58:40.337Z,38.50
2018-06-15T12:01:09.965Z,38.36
2018-06-15T12:03:39.297Z,35.82
2018-06-15T12:06:08.682Z,37.66
2018-06-15T12:08:37.989Z,38.43
2018-06-15T12:11:07.593Z,36.68
2018-06-15T12:13:37.265Z,37.66
2018-06-15T12:16:06.631Z,37.39
2018-06-15T12:18:36.095Z,36.27
2018-06-15T12:21:05.421Z,37.68
2018-06-15T12:23:34.756Z,39.79
2018-06-15T12:26:04.074Z,40.58
2018-06-15T12:28:33.454Z,42.48
2018-06-15T12:31:02.940Z,41.94
2018-06-15T12:33:32.308Z,41.44
2018-06-15T12:36:01.646Z,42.40
2018-06-15T12:38:30.949Z,44.33
2018-06-15T12:41:00.324Z,42.21
2018-06-15T12:43:29.833Z,43.56
2018-06-15T12:45:59.233Z,43.16
2018-06-15T12:48:28.497Z,42.73
2018-06-15T12:50:58.836Z,43.17
2018-06-15T12:53:28.580Z,42.17
2018-06-15T12:55:58.938Z,40.63
2018-06-15T12:58:28.317Z,39.74
2018-06-15T13:00:57.643Z,40.58
2018-06-15T13:03:27.013Z,40.17
2018-06-15T13:05:56.353Z,38.05
2018-06-15T13:08:25.836Z,39.09
2018-06-15T13:10:55.254Z,36.83
2018-06-15T13:13:24.585Z,37.50
2018-06-15T13:15:53.921Z,40.07
2018-06-15T13:18:23.265Z,41.43
2018-06-15T13:20:52.588Z,41.44
2018-06-15T13:23:22.046Z,40.95
2018-06-15T13:25:51.357Z,39.48
2018-06-15T13:28:20.685Z,38.74
2018-06-15T13:30:49.980Z,38.01
2018-06-15T13:33:19.314Z,39.09
2018-06-15T13:35:48.754Z,40.62
2018-06-15T13:38:18.080Z,41.61
2018-06-15T13:40:47.393Z,42.07
2018-06-15T13:43:16.727Z,42.11
2018-06-15T13:45:46.035Z,43.23
2018-06-15T13:48:15.357Z,43.02
2018-06-15T13:50:44.772Z,43.96
2018-06-15T13:53:14.244Z,44.23
2018-06-15T13:55:43.592Z,46.17
2018-06-15T13:58:12.914Z,45.96
2018-06-15T14:00:42.356Z,47.82
2018-06-15T14:03:11.831Z,47.39
2018-06-15T14:05:41.226Z,47.15
2018-06-15T14:08:10.595Z,47.65
2018-06-15T14:10:39.957Z,46.55
2018-06-15T14:13:09.268Z,45.68
2018-06-15T14:15:38.891Z,45.26
2018-06-15T14:18:08.336Z,45.83
2018-06-15T14:20:37.684Z,47.42
2018-06-15T14:23:18.835Z,45.48
2018-06-15T14:25:48.130Z,45.21
2018-06-15T14:28:17.530Z,46.43
2018-06-15T14:30:46.870Z,44.31
2018-06-15T14:33:16.249Z,43.52
2018-06-15T14:35:54.775Z,43.08
2018-06-15T14:38:24.144Z,43.36
2018-06-15T14:40:53.507Z,44.41
2018-06-15T14:43:22.825Z,43.06
2018-06-15T14:45:52.181Z,43.69
2018-06-15T14:48:21.533Z,44.16
2018-06-15T14:50:50.878Z,44.46
2018-06-15T14:53:20.273Z,44.13
2018-06-15T14:55:49.576Z,44.76
2018-06-15T14:58:18.899Z,46.68
2018-06-15T15:00:48.255Z,46.57
2018-06-15T15:03:18.579Z,45.20
2018-06-15T15:05:48.033Z,44.57
2018-06-15T15:08:17.371Z,45.08
2018-06-15T15:10:46.680Z,46.59
2018-06-15T15:13:16.041Z,47.58
2018-06-15T15:15:45.340Z,46.30
2018-06-15T15:18:14.919Z,48.12
2018-06-15T15:20:44.180Z,48.31
2018-06-15T15:23:13.584Z,48.26
2018-06-15T15:25:42.888Z,47.39
2018-06-15T15:28:12.259Z,45.09
2018-06-15T15:30:41.607Z,45.33
2018-06-15T15:33:10.920Z,45.32
2018-06-15T15:35:40.260Z,44.39
2018-06-15T15:38:09.584Z,44.56
2018-06-15T15:40:38.884Z,44.71
2018-06-15T15:43:08.264Z,45.88
2018-06-15T15:45:37.626Z,46.46
2018-06-15T15:48:06.958Z,46.92
2018-06-15T15:50:36.287Z,47.18
2018-06-15T15:53:05.637Z,48.15
2018-06-15T15:55:35.048Z,47.85
2018-06-15T15:58:04.393Z,49.38
2018-06-15T16:00:33.720Z,49.24
2018-06-15T16:03:03.072Z,48.69
2018-06-15T16:05:32.403Z,48.76
2018-06-15T16:08:01.785Z,46.93
2018-06-15T16:10:31.121Z,47.89
2018-06-15T16:13:00.459Z,46.63
2018-06-15T16:15:29.785Z,47.08
2018-06-15T16:17:59.161Z,47.42
2018-06-15T16:20:28.541Z,44.65
2018-06-15T16:22:57.856Z,45.99
2018-06-15T16:25:27.201Z,46.66
2018-06-15T16:27:56.544Z,47.02
2018-06-15T16:30:25.898Z,46.39
2018-06-15T16:32:55.373Z,45.67
2018-06-15T16:35:24.692Z,45.95
2018-06-15T16:37:54.008Z,45.51
2018-06-15T16:40:23.505Z,45.85
2018-06-15T16:42:53.019Z,43.68
2018-06-15T16:45:22.415Z,43.96
2018-06-15T16:47:51.726Z,42.87
2018-06-15T16:50:21.035Z,43.60
2018-06-15T16:52:50.352Z,44.33
2018-06-15T16:55:19.697Z,43.83
2018-06-15T16:57:49.124Z,42.63
2018-06-15T17:00:18.583Z,43.52
2018-06-15T17:02:47.936Z,44.72
2018-06-15T17:05:17.256Z,44.77
2018-06-15T17:07:46.558Z,45.25
2018-06-15T17:10:15.899Z,44.87
2018-06-15T17:12:45.169Z,44.08
2018-06-15T17:15:14.443Z,44.28
2018-06-15T17:17:43.754Z,43.47
2018-06-15T17:20:13.065Z,43.97
2018-06-15T17:22:42.333Z,44.10
2018-06-15T17:25:11.657Z,44.26
2018-06-15T17:27:41.011Z,44.70
2018-06-15T17:30:10.288Z,44.45
2018-06-15T17:32:39.552Z,44.83
2018-06-15T17:35:08.816Z,45.27
2018-06-15T17:37:38.221Z,43.99
2018-06-15T17:40:07.582Z,45.11
2018-06-15T17:42:36.944Z,44.33
2018-06-15T17:45:06.272Z,44.47
2018-06-15T17:47:35.576Z,44.20
2018-06-15T17:50:05.058Z,44.23
2018-06-15T17:52:34.432Z,45.35
2018-06-15T17:55:03.825Z,45.80
2018-06-15T17:57:33.174Z,47.28
2018-06-15T18:00:02.504Z,46.57
2018-06-15T18:02:31.804Z,46.76
2018-06-15T18:05:01.259Z,46.31
2018-06-15T18:07:30.612Z,46.72
2018-06-15T18:09:59.966Z,47.59
2018-06-15T18:12:29.316Z,46.86
2018-06-15T18:14:58.665Z,48.02
2018-06-15T18:17:28.149Z,48.02
2018-06-15T18:19:57.417Z,47.35
2018-06-15T18:22:26.731Z,46.40
2018-06-15T18:24:56.171Z,46.49
2018-06-15T18:27:25.473Z,47.79
2018-06-15T18:29:54.829Z,49.33
2018-06-15T18:32:24.130Z,50.09
2018-06-15T18:34:53.431Z,48.45
2018-06-15T18:37:22.879Z,49.77
2018-06-15T18:39:52.261Z,48.81
2018-06-15T18:42:21.578Z,49.37
2018-06-15T18:44:50.885Z,50.02
2018-06-15T18:47:20.268Z,51.64
2018-06-15T18:49:49.641Z,52.08
2018-06-15T18:52:19.057Z,50.41
2018-06-15T18:54:48.481Z,51.34
2018-06-15T18:57:17.853Z,51.78
2018-06-15T18:59:47.164Z,52.60
2018-06-15T19:02:16.503Z,51.86
2018-06-15T19:04:45.825Z,51.31
2018-06-15T19:07:15.229Z,51.13
2018-06-15T19:09:44.683Z,52.56
2018-06-15T19:12:14.057Z,52.72
2018-06-15T19:14:43.391Z,51.39
2018-06-15T19:17:12.708Z,53.46
2018-06-15T19:19:42.049Z,53.81
2018-06-15T19:22:12.394Z,52.23
2018-06-15T19:24:41.742Z,52.94
2018-06-15T19:27:11.194Z,54.49
2018-06-15T19:29:40.534Z,54.37
2018-06-15T19:32:09.909Z,54.08
2018-06-15T19:34:39.244Z,53.08
2018-06-15T19:37:08.569Z,53.81
2018-06-15T19:39:37.964Z,54.36
2018-06-15T19:42:07.364Z,54.57
2018-06-15T19:44:36.690Z,55.15
2018-06-15T19:47:06.034Z,53.81
2018-06-15T19:49:35.382Z,54.16
2018-06-15T19:52:04.743Z,54.67
2018-06-15T19:54:34.066Z,54.10
2018-06-15T19:57:03.382Z,53.07
2018-06-15T19:59:32.688Z,52.17
2018-06-15T20:02:02.033Z,52.75
2018-06-15T20:04:31.426Z,52.60
2018-06-15T20:07:01.129Z,51.77
2018-06-15T20:09:30.519Z,52.89
2018-06-15T20:11:59.815Z,51.33
2018-06-15T20:14:29.189Z,50.98
2018-06-15T20:16:58.888Z,52.07
2018-06-15T20:19:28.236Z,51.46
2018-06-15T20:21:57.562Z,50.69
2018-06-15T20:24:26.980Z,49.59
2018-06-15T20:26:56.304Z,49.64
2018-06-15T20:29:25.704Z,49.44
2018-06-15T20:31:55.007Z,50.58
2018-06-15T20:34:24.284Z,52.06
2018-06-15T20:36:53.548Z,52.16
2018-06-15T20:39:22.969Z,52.14
2018-06-15T20:41:52.349Z,51.05
2018-06-15T20:44:21.631Z,50.19
2018-06-15T20:46:50.953Z,50.75
2018-06-15T20:49:20.245Z,50.13
2018-06-15T20:51:49.592Z,51.05
2018-06-15T20:54:18.934Z,50.33
2018-06-15T20:56:48.200Z,50.59
2018-06-15T20:59:17.569Z,52.14
2018-06-15T21:01:46.842Z,52.80
2018-06-15T21:04:16.264Z,52.50
2018-06-15T21:06:46.569Z,54.05
2018-06-15T21:09:15.944Z,55.17
2018-06-15T21:11:45.306Z,54.85
2018-06-15T21:14:14.618Z,55.20
2018-06-15T21:16:43.933Z,54.27
2018-06-15T21:19:13.297Z,55.50
2018-06-15T21:21:42.616Z,54.47
2018-06-15T21:24:11.945Z,55.42
2018-06-15T21:26:41.271Z,56.19
2018-06-15T21:29:10.617Z,56.17
2018-06-15T21:31:39.924Z,57.08
2018-06-15T21:34:09.272Z,54.85
2018-06-15T21:36:38.616Z,57.36
2018-06-15T21:39:09.044Z,58.49
2018-06-15T21:41:38.402Z,58.89
2018-06-15T21:44:07.672Z,57.17
2018-06-15T21:46:36.957Z,57.05
2018-06-15T21:49:06.306Z,58.06
2018-06-15T21:51:35.633Z,59.46
2018-06-15T21:54:05.065Z,59.30
2018-06-15T21:56:34.473Z,59.61
2018-06-15T21:59:03.761Z,60.05
2018-06-15T22:01:33.113Z,59.65
2018-06-15T22:04:02.559Z,60.83
2018-06-15T22:06:31.865Z,59.35
2018-06-15T22:09:01.220Z,59.63
2018-06-15T22:11:30.497Z,59.41
2018-06-15T22:13:59.880Z,59.25
2018-06-15T22:16:33.296Z,60.44
2018-06-15T22:19:02.652Z,60.40
2018-06-15T22:21:31.992Z,60.70
2018-06-15T22:24:01.284Z,59.29
2018-06-15T22:26:30.585Z,60.18
2018-06-15T22:28:59.953Z,63.60
2018-06-15T22:31:29.239Z,62.29
2018-06-15T22:33:58.497Z,63.68
2018-06-15T22:36:27.770Z,63.35
2018-06-15T22:38:57.097Z,61.07
2018-06-15T22:41:26.372Z,62.66
2018-06-15T22:43:55.663Z,61.89
2018-06-15T22:46:24.961Z,60.99
2018-06-15T22:48:54.246Z,58.75
2018-06-15T22:51:23.564Z,58.49
2018-06-15T22:53:52.820Z,59.22
2018-06-15T22:56:22.075Z,59.51
2018-06-15T22:58:51.372Z,58.59
2018-06-15T23:01:20.645Z,59.56
2018-06-15T23:03:49.964Z,60.09
2018-06-15T23:06:19.281Z,60.75
2018-06-15T23:08:48.544Z,60.70
2018-06-15T23:11:17.829Z,60.18
2018-06-15T23:13:47.109Z,60.89
2018-06-15T23:16:16.460Z,60.96
2018-06-15T23:18:45.769Z,60.52
2018-06-15T23:21:15.032Z,61.35
2018-06-15T23:23:44.324Z,61.63
2018-06-15T23:26:13.590Z,62.81
2018-06-15T23:28:42.870Z,62.63
2018-06-15T23:31:12.175Z,62.67
2018-06-15T23:33:41.545Z,62.96
2018-06-15T23:36:10.797Z,63.40
2018-06-15T23:38:40.056Z,63.49
2018-06-15T23:41:15.889Z,62.40
2018-06-15T23:43:45.146Z,64.23
2018-06-15T23:46:14.524Z,62.57
2018-06-15T23:48:43.872Z,62.86
2018-06-15T23:51:13.336Z,62.28
2018-06-15T23:53:42.632Z,61.39
2018-06-15T23:56:11.992Z,64.94
2018-06-15T23:58:41.252Z,63.37
